sensor_id;sensor_type;location;lat;lon;timestamp;temperature;humidity
43581;DHT22;29175;51.030;4.606;2022-12-18T00:01:28;-2.80;99.90
43581;DHT22;29175;51.030;4.606;2022-12-18T00:03:55;-2.70;99.90
43581;DHT22;29175;51.030;4.606;2022-12-18T00:06:25;-2.80;99.90
43581;DHT22;29175;51.030;4.606;2022-12-18T00:08:51;-3.00;99.90
43581;DHT22;29175;51.030;4.606;2022-12-18T00:11:20;-2.90;99.90
43581;DHT22;29175;51.030;4.606;2022-12-18T00:13:47;-3.00;99.90
43581;DHT22;29175;51.030;4.606;2022-12-18T00:16:16;-3.00;99.90
43581;DHT22;29175;51.030;4.606;2022-12-18T00:18:42;-3.10;99.90
43581;DHT22;29175;51.030;4.606;2022-12-18T00:21:10;-3.20;99.90
43581;DHT22;29175;51.030;4.606;2022-12-18T00:23:38;-3.00;99.90
43581;DHT22;29175;51.030;4.606;2022-12-18T00:26:07;-3.20;99.90
43581;DHT22;29175;51.030;4.606;2022-12-18T00:28:33;-3.10;99.90
43581;DHT22;29175;51.030;4.606;2022-12-18T00:31:07;-3.20;99.90
43581;DHT22;29175;51.030;4.606;2022-12-18T00:33:34;-3.20;99.90
43581;DHT22;29175;51.030;4.606;2022-12-18T00:36:06;-3.10;99.90
43581;DHT22;29175;51.030;4.606;2022-12-18T00:38:34;-3.30;99.90
43581;DHT22;29175;51.030;4.606;2022-12-18T00:41:00;-3.30;99.90
43581;DHT22;29175;51.030;4.606;2022-12-18T00:43:25;-3.30;99.90
43581;DHT22;29175;51.030;4.606;2022-12-18T00:45:53;-3.30;99.90
43581;DHT22;29175;51.030;4.606;2022-12-18T00:48:18;-3.30;99.90
43581;DHT22;29175;51.030;4.606;2022-12-18T00:50:44;-3.30;99.90
43581;DHT22;29175;51.030;4.606;2022-12-18T00:53:11;-3.40;99.90
43581;DHT22;29175;51.030;4.606;2022-12-18T00:55:40;-3.40;99.90
43581;DHT22;29175;51.030;4.606;2022-12-18T00:58:08;-3.60;99.90
43581;DHT22;29175;51.030;4.606;2022-12-18T01:00:34;-3.60;99.90
43581;DHT22;29175;51.030;4.606;2022-12-18T01:03:00;-3.70;99.90
43581;DHT22;29175;51.030;4.606;2022-12-18T01:05:26;-3.50;99.90
43581;DHT22;29175;51.030;4.606;2022-12-18T01:07:52;-3.50;99.90
43581;DHT22;29175;51.030;4.606;2022-12-18T01:10:18;-3.50;99.90
43581;DHT22;29175;51.030;4.606;2022-12-18T01:12:44;-3.50;99.90
43581;DHT22;29175;51.030;4.606;2022-12-18T01:15:11;-3.60;99.90
43581;DHT22;29175;51.030;4.606;2022-12-18T01:17:37;-3.60;99.90
43581;DHT22;29175;51.030;4.606;2022-12-18T01:20:03;-3.80;99.90
43581;DHT22;29175;51.030;4.606;2022-12-18T01:22:29;-3.90;99.90
43581;DHT22;29175;51.030;4.606;2022-12-18T01:24:56;-3.90;99.90
43581;DHT22;29175;51.030;4.606;2022-12-18T01:27:22;-3.80;99.90
43581;DHT22;29175;51.030;4.606;2022-12-18T01:29:48;-3.80;99.90
43581;DHT22;29175;51.030;4.606;2022-12-18T01:32:14;-3.80;99.90
43581;DHT22;29175;51.030;4.606;2022-12-18T01:34:40;-3.70;99.90
43581;DHT22;29175;51.030;4.606;2022-12-18T01:37:06;-3.80;99.90
43581;DHT22;29175;51.030;4.606;2022-12-18T01:39:32;-3.80;99.90
43581;DHT22;29175;51.030;4.606;2022-12-18T01:41:59;-3.70;99.90
43581;DHT22;29175;51.030;4.606;2022-12-18T01:44:58;-3.80;99.90
43581;DHT22;29175;51.030;4.606;2022-12-18T01:47:35;-4.00;99.90
43581;DHT22;29175;51.030;4.606;2022-12-18T01:50:07;-4.20;99.90
43581;DHT22;29175;51.030;4.606;2022-12-18T01:52:34;-4.10;99.90
43581;DHT22;29175;51.030;4.606;2022-12-18T01:55:03;-4.20;99.90
43581;DHT22;29175;51.030;4.606;2022-12-18T01:57:31;-4.20;99.90
43581;DHT22;29175;51.030;4.606;2022-12-18T02:00:01;-4.10;99.90
43581;DHT22;29175;51.030;4.606;2022-12-18T02:02:29;-4.10;99.90
43581;DHT22;29175;51.030;4.606;2022-12-18T02:04:55;-4.00;99.90
43581;DHT22;29175;51.030;4.606;2022-12-18T02:10:08;-4.00;99.90
43581;DHT22;29175;51.030;4.606;2022-12-18T02:13:02;-3.90;99.90
43581;DHT22;29175;51.030;4.606;2022-12-18T02:16:13;-4.00;99.90
43581;DHT22;29175;51.030;4.606;2022-12-18T02:18:45;-4.00;99.90
43581;DHT22;29175;51.030;4.606;2022-12-18T02:26:38;-4.10;99.90
43581;DHT22;29175;51.030;4.606;2022-12-18T02:32:11;-4.10;99.90
43581;DHT22;29175;51.030;4.606;2022-12-18T02:34:40;-4.10;99.90
43581;DHT22;29175;51.030;4.606;2022-12-18T02:37:11;-4.20;99.90
43581;DHT22;29175;51.030;4.606;2022-12-18T02:39:40;-4.10;99.90
43581;DHT22;29175;51.030;4.606;2022-12-18T02:42:07;-4.10;99.90
43581;DHT22;29175;51.030;4.606;2022-12-18T02:44:44;-4.10;99.90
43581;DHT22;29175;51.030;4.606;2022-12-18T02:47:11;-4.00;99.90
43581;DHT22;29175;51.030;4.606;2022-12-18T02:52:31;-4.10;99.90
43581;DHT22;29175;51.030;4.606;2022-12-18T02:57:56;-4.10;99.90
43581;DHT22;29175;51.030;4.606;2022-12-18T03:00:39;-4.10;99.90
43581;DHT22;29175;51.030;4.606;2022-12-18T03:03:07;-4.20;99.90
43581;DHT22;29175;51.030;4.606;2022-12-18T03:05:50;-4.10;99.90
43581;DHT22;29175;51.030;4.606;2022-12-18T03:08:29;-4.10;99.90
43581;DHT22;29175;51.030;4.606;2022-12-18T03:11:03;-4.00;99.90
43581;DHT22;29175;51.030;4.606;2022-12-18T03:13:36;-4.20;99.90
43581;DHT22;29175;51.030;4.606;2022-12-18T03:16:03;-4.20;99.90
43581;DHT22;29175;51.030;4.606;2022-12-18T03:18:37;-4.30;99.90
43581;DHT22;29175;51.030;4.606;2022-12-18T03:21:06;-4.30;99.90
43581;DHT22;29175;51.030;4.606;2022-12-18T03:23:38;-4.40;99.90
43581;DHT22;29175;51.030;4.606;2022-12-18T03:26:09;-4.30;99.90
43581;DHT22;29175;51.030;4.606;2022-12-18T03:28:40;-4.50;99.90
43581;DHT22;29175;51.030;4.606;2022-12-18T03:31:09;-4.30;99.90
43581;DHT22;29175;51.030;4.606;2022-12-18T03:33:43;-4.60;99.90
43581;DHT22;29175;51.030;4.606;2022-12-18T03:36:11;-4.60;99.90
43581;DHT22;29175;51.030;4.606;2022-12-18T03:38:37;-4.60;99.90
43581;DHT22;29175;51.030;4.606;2022-12-18T03:41:14;-4.60;99.90
43581;DHT22;29175;51.030;4.606;2022-12-18T03:52:19;-4.50;99.90
43581;DHT22;29175;51.030;4.606;2022-12-18T03:54:46;-4.40;99.90
43581;DHT22;29175;51.030;4.606;2022-12-18T03:57:19;-4.40;99.90
43581;DHT22;29175;51.030;4.606;2022-12-18T03:59:47;-4.40;99.90
43581;DHT22;29175;51.030;4.606;2022-12-18T04:02:16;-4.40;99.90
43581;DHT22;29175;51.030;4.606;2022-12-18T04:04:43;-4.30;99.90
43581;DHT22;29175;51.030;4.606;2022-12-18T04:07:10;-4.40;99.90
43581;DHT22;29175;51.030;4.606;2022-12-18T04:09:38;-4.20;99.90
43581;DHT22;29175;51.030;4.606;2022-12-18T04:12:05;-4.40;99.90
43581;DHT22;29175;51.030;4.606;2022-12-18T04:14:31;-4.50;99.90
43581;DHT22;29175;51.030;4.606;2022-12-18T04:17:01;-4.60;99.90
43581;DHT22;29175;51.030;4.606;2022-12-18T04:19:27;-4.50;99.90
43581;DHT22;29175;51.030;4.606;2022-12-18T04:21:53;-4.50;99.90
43581;DHT22;29175;51.030;4.606;2022-12-18T04:24:19;-4.60;99.90
43581;DHT22;29175;51.030;4.606;2022-12-18T04:26:45;-4.50;99.90
43581;DHT22;29175;51.030;4.606;2022-12-18T04:29:10;-4.70;99.90
43581;DHT22;29175;51.030;4.606;2022-12-18T04:31:36;-4.70;99.90
43581;DHT22;29175;51.030;4.606;2022-12-18T04:34:02;-4.70;99.90
43581;DHT22;29175;51.030;4.606;2022-12-18T04:36:28;-4.70;99.90
43581;DHT22;29175;51.030;4.606;2022-12-18T04:38:54;-4.70;99.90
43581;DHT22;29175;51.030;4.606;2022-12-18T04:41:20;-4.70;99.90
43581;DHT22;29175;51.030;4.606;2022-12-18T04:43:45;-4.60;99.90
43581;DHT22;29175;51.030;4.606;2022-12-18T04:46:11;-4.50;99.90
43581;DHT22;29175;51.030;4.606;2022-12-18T04:48:38;-4.60;99.90
43581;DHT22;29175;51.030;4.606;2022-12-18T04:51:05;-4.50;99.90
43581;DHT22;29175;51.030;4.606;2022-12-18T04:53:31;-4.50;99.90
43581;DHT22;29175;51.030;4.606;2022-12-18T04:56:09;-4.50;99.90
43581;DHT22;29175;51.030;4.606;2022-12-18T04:58:36;-4.50;99.90
43581;DHT22;29175;51.030;4.606;2022-12-18T05:01:02;-4.60;99.90
43581;DHT22;29175;51.030;4.606;2022-12-18T05:03:28;-4.60;99.90
43581;DHT22;29175;51.030;4.606;2022-12-18T05:05:54;-4.50;99.90
43581;DHT22;29175;51.030;4.606;2022-12-18T05:08:20;-4.80;99.90
43581;DHT22;29175;51.030;4.606;2022-12-18T05:10:46;-4.50;99.90
43581;DHT22;29175;51.030;4.606;2022-12-18T05:13:11;-4.60;99.90
43581;DHT22;29175;51.030;4.606;2022-12-18T05:15:37;-4.70;99.90
43581;DHT22;29175;51.030;4.606;2022-12-18T05:18:04;-4.70;99.90
43581;DHT22;29175;51.030;4.606;2022-12-18T05:20:30;-4.70;99.90
43581;DHT22;29175;51.030;4.606;2022-12-18T05:22:57;-4.70;99.90
43581;DHT22;29175;51.030;4.606;2022-12-18T05:25:23;-4.70;99.90
43581;DHT22;29175;51.030;4.606;2022-12-18T05:27:49;-4.80;99.90
43581;DHT22;29175;51.030;4.606;2022-12-18T05:30:15;-4.80;99.90
43581;DHT22;29175;51.030;4.606;2022-12-18T05:32:42;-4.90;99.90
43581;DHT22;29175;51.030;4.606;2022-12-18T05:35:09;-4.70;99.90
43581;DHT22;29175;51.030;4.606;2022-12-18T05:37:35;-4.90;99.90
43581;DHT22;29175;51.030;4.606;2022-12-18T05:40:03;-5.00;99.90
43581;DHT22;29175;51.030;4.606;2022-12-18T05:42:28;-4.90;99.90
43581;DHT22;29175;51.030;4.606;2022-12-18T05:44:55;-5.00;99.90
43581;DHT22;29175;51.030;4.606;2022-12-18T05:47:21;-4.90;99.90
43581;DHT22;29175;51.030;4.606;2022-12-18T05:49:46;-4.90;99.90
43581;DHT22;29175;51.030;4.606;2022-12-18T05:52:12;-4.90;99.90
43581;DHT22;29175;51.030;4.606;2022-12-18T05:54:38;-5.00;99.90
43581;DHT22;29175;51.030;4.606;2022-12-18T05:57:05;-4.90;99.90
43581;DHT22;29175;51.030;4.606;2022-12-18T05:59:31;-5.00;99.90
43581;DHT22;29175;51.030;4.606;2022-12-18T06:01:57;-5.10;99.90
43581;DHT22;29175;51.030;4.606;2022-12-18T06:04:22;-5.10;99.90
43581;DHT22;29175;51.030;4.606;2022-12-18T06:06:48;-5.00;99.90
43581;DHT22;29175;51.030;4.606;2022-12-18T06:09:14;-4.90;99.90
43581;DHT22;29175;51.030;4.606;2022-12-18T06:11:39;-5.00;99.90
43581;DHT22;29175;51.030;4.606;2022-12-18T06:14:06;-5.00;99.90
43581;DHT22;29175;51.030;4.606;2022-12-18T06:16:32;-5.20;99.90
43581;DHT22;29175;51.030;4.606;2022-12-18T06:19:02;-5.30;99.90
43581;DHT22;29175;51.030;4.606;2022-12-18T06:21:29;-5.20;99.90
43581;DHT22;29175;51.030;4.606;2022-12-18T06:23:55;-5.20;99.90
43581;DHT22;29175;51.030;4.606;2022-12-18T06:26:21;-5.20;99.90
43581;DHT22;29175;51.030;4.606;2022-12-18T06:28:46;-5.00;99.90
43581;DHT22;29175;51.030;4.606;2022-12-18T06:31:12;-4.90;99.90
43581;DHT22;29175;51.030;4.606;2022-12-18T06:33:38;-5.00;99.90
43581;DHT22;29175;51.030;4.606;2022-12-18T06:36:10;-4.90;99.90
43581;DHT22;29175;51.030;4.606;2022-12-18T06:38:38;-5.00;99.90
43581;DHT22;29175;51.030;4.606;2022-12-18T06:41:16;-5.00;99.90
43581;DHT22;29175;51.030;4.606;2022-12-18T06:43:43;-5.00;99.90
43581;DHT22;29175;51.030;4.606;2022-12-18T06:46:09;-5.00;99.90
43581;DHT22;29175;51.030;4.606;2022-12-18T06:48:36;-5.00;99.90
43581;DHT22;29175;51.030;4.606;2022-12-18T06:51:02;-5.10;99.90
43581;DHT22;29175;51.030;4.606;2022-12-18T06:53:28;-5.10;99.90
43581;DHT22;29175;51.030;4.606;2022-12-18T06:56:05;-5.00;99.90
43581;DHT22;29175;51.030;4.606;2022-12-18T06:58:32;-4.90;99.90
43581;DHT22;29175;51.030;4.606;2022-12-18T07:01:02;-4.80;99.90
43581;DHT22;29175;51.030;4.606;2022-12-18T07:03:28;-4.80;99.90
43581;DHT22;29175;51.030;4.606;2022-12-18T07:05:54;-4.80;99.90
43581;DHT22;29175;51.030;4.606;2022-12-18T07:08:20;-4.80;99.90
43581;DHT22;29175;51.030;4.606;2022-12-18T07:10:46;-4.80;99.90
43581;DHT22;29175;51.030;4.606;2022-12-18T07:13:15;-5.00;99.90
43581;DHT22;29175;51.030;4.606;2022-12-18T07:15:41;-4.90;99.90
43581;DHT22;29175;51.030;4.606;2022-12-18T07:18:07;-4.90;99.90
43581;DHT22;29175;51.030;4.606;2022-12-18T07:20:32;-5.00;99.90
43581;DHT22;29175;51.030;4.606;2022-12-18T07:22:58;-5.00;99.90
43581;DHT22;29175;51.030;4.606;2022-12-18T07:25:24;-4.80;99.90
43581;DHT22;29175;51.030;4.606;2022-12-18T07:27:50;-4.90;99.90
43581;DHT22;29175;51.030;4.606;2022-12-18T07:30:15;-4.80;99.90
43581;DHT22;29175;51.030;4.606;2022-12-18T07:32:41;-4.80;99.90
43581;DHT22;29175;51.030;4.606;2022-12-18T07:35:07;-4.70;99.90
43581;DHT22;29175;51.030;4.606;2022-12-18T07:37:33;-4.80;99.90
43581;DHT22;29175;51.030;4.606;2022-12-18T07:39:59;-4.70;99.90
43581;DHT22;29175;51.030;4.606;2022-12-18T07:42:25;-4.50;99.90
43581;DHT22;29175;51.030;4.606;2022-12-18T07:44:57;-4.70;99.90
43581;DHT22;29175;51.030;4.606;2022-12-18T07:47:23;-4.80;99.90
43581;DHT22;29175;51.030;4.606;2022-12-18T07:49:49;-4.70;99.90
43581;DHT22;29175;51.030;4.606;2022-12-18T07:52:15;-4.60;99.90
43581;DHT22;29175;51.030;4.606;2022-12-18T07:54:40;-4.70;99.90
43581;DHT22;29175;51.030;4.606;2022-12-18T07:57:07;-4.70;99.90
43581;DHT22;29175;51.030;4.606;2022-12-18T07:59:33;-4.70;99.90
43581;DHT22;29175;51.030;4.606;2022-12-18T08:01:59;-4.60;99.90
43581;DHT22;29175;51.030;4.606;2022-12-18T08:04:25;-4.90;99.90
43581;DHT22;29175;51.030;4.606;2022-12-18T08:06:51;-4.80;99.90
43581;DHT22;29175;51.030;4.606;2022-12-18T08:09:17;-4.80;99.90
43581;DHT22;29175;51.030;4.606;2022-12-18T08:11:43;-4.70;99.90
43581;DHT22;29175;51.030;4.606;2022-12-18T08:14:09;-4.80;99.90
43581;DHT22;29175;51.030;4.606;2022-12-18T08:16:35;-4.70;99.90
43581;DHT22;29175;51.030;4.606;2022-12-18T08:19:01;-4.50;99.90
43581;DHT22;29175;51.030;4.606;2022-12-18T08:21:29;-4.50;99.90
43581;DHT22;29175;51.030;4.606;2022-12-18T08:23:57;-4.50;99.90
43581;DHT22;29175;51.030;4.606;2022-12-18T08:26:24;-4.20;99.90
43581;DHT22;29175;51.030;4.606;2022-12-18T08:28:50;-4.40;99.90
43581;DHT22;29175;51.030;4.606;2022-12-18T08:31:17;-4.20;99.90
43581;DHT22;29175;51.030;4.606;2022-12-18T08:33:43;-4.00;99.90
43581;DHT22;29175;51.030;4.606;2022-12-18T08:36:11;-3.90;99.90
43581;DHT22;29175;51.030;4.606;2022-12-18T08:38:36;-3.70;99.90
43581;DHT22;29175;51.030;4.606;2022-12-18T08:41:08;-3.70;99.90
43581;DHT22;29175;51.030;4.606;2022-12-18T08:43:35;-3.80;99.90
43581;DHT22;29175;51.030;4.606;2022-12-18T08:46:20;-3.80;99.90
43581;DHT22;29175;51.030;4.606;2022-12-18T08:48:47;-3.60;99.90
43581;DHT22;29175;51.030;4.606;2022-12-18T08:51:13;-3.40;99.90
43581;DHT22;29175;51.030;4.606;2022-12-18T08:53:40;-3.60;99.90
43581;DHT22;29175;51.030;4.606;2022-12-18T08:56:08;-3.30;99.90
43581;DHT22;29175;51.030;4.606;2022-12-18T08:58:34;-3.10;99.90
43581;DHT22;29175;51.030;4.606;2022-12-18T09:01:05;-3.10;99.90
43581;DHT22;29175;51.030;4.606;2022-12-18T09:03:32;-2.90;99.90
43581;DHT22;29175;51.030;4.606;2022-12-18T09:05:58;-2.80;99.90
43581;DHT22;29175;51.030;4.606;2022-12-18T09:08:26;-2.60;99.90
43581;DHT22;29175;51.030;4.606;2022-12-18T09:10:52;-2.60;99.90
43581;DHT22;29175;51.030;4.606;2022-12-18T09:13:18;-2.50;99.90
43581;DHT22;29175;51.030;4.606;2022-12-18T09:15:54;-2.30;99.90
43581;DHT22;29175;51.030;4.606;2022-12-18T09:18:22;-2.30;99.90
43581;DHT22;29175;51.030;4.606;2022-12-18T09:20:48;-2.20;99.90
43581;DHT22;29175;51.030;4.606;2022-12-18T09:23:15;-2.10;99.90
43581;DHT22;29175;51.030;4.606;2022-12-18T09:25:41;-2.10;99.90
43581;DHT22;29175;51.030;4.606;2022-12-18T09:28:12;-1.90;99.90
43581;DHT22;29175;51.030;4.606;2022-12-18T09:30:39;-1.90;99.90
43581;DHT22;29175;51.030;4.606;2022-12-18T09:33:05;-1.80;99.90
43581;DHT22;29175;51.030;4.606;2022-12-18T09:35:31;-1.70;99.90
43581;DHT22;29175;51.030;4.606;2022-12-18T09:37:59;-1.50;99.90
43581;DHT22;29175;51.030;4.606;2022-12-18T09:40:26;-1.40;99.90
43581;DHT22;29175;51.030;4.606;2022-12-18T09:42:59;-1.40;99.90
43581;DHT22;29175;51.030;4.606;2022-12-18T09:45:26;-1.20;99.90
43581;DHT22;29175;51.030;4.606;2022-12-18T09:47:54;-1.20;99.90
43581;DHT22;29175;51.030;4.606;2022-12-18T09:50:31;-1.30;99.90
43581;DHT22;29175;51.030;4.606;2022-12-18T09:53:04;-1.10;99.90
43581;DHT22;29175;51.030;4.606;2022-12-18T09:55:37;-1.00;99.90
43581;DHT22;29175;51.030;4.606;2022-12-18T10:00:54;-0.70;99.90
43581;DHT22;29175;51.030;4.606;2022-12-18T10:03:20;-0.70;99.90
43581;DHT22;29175;51.030;4.606;2022-12-18T10:06:02;-0.80;99.90
43581;DHT22;29175;51.030;4.606;2022-12-18T10:17:28;-0.20;99.90
43581;DHT22;29175;51.030;4.606;2022-12-18T10:20:13;-0.20;99.90
43581;DHT22;29175;51.030;4.606;2022-12-18T10:27:57;-0.70;99.90
43581;DHT22;29175;51.030;4.606;2022-12-18T10:30:24;-0.40;99.90
43581;DHT22;29175;51.030;4.606;2022-12-18T10:32:50;-0.30;99.90
43581;DHT22;29175;51.030;4.606;2022-12-18T10:35:22;-0.40;99.90
43581;DHT22;29175;51.030;4.606;2022-12-18T10:38:05;-0.30;99.90
43581;DHT22;29175;51.030;4.606;2022-12-18T10:40:32;-0.30;99.90
43581;DHT22;29175;51.030;4.606;2022-12-18T10:43:14;-0.40;99.90
43581;DHT22;29175;51.030;4.606;2022-12-18T10:45:41;-0.30;99.90
43581;DHT22;29175;51.030;4.606;2022-12-18T10:48:21;-0.20;99.90
43581;DHT22;29175;51.030;4.606;2022-12-18T10:50:49;0.00;99.90
43581;DHT22;29175;51.030;4.606;2022-12-18T10:53:36;0.10;99.90
43581;DHT22;29175;51.030;4.606;2022-12-18T10:56:03;0.10;99.90
43581;DHT22;29175;51.030;4.606;2022-12-18T10:58:32;0.30;99.90
43581;DHT22;29175;51.030;4.606;2022-12-18T11:01:08;0.20;99.90
43581;DHT22;29175;51.030;4.606;2022-12-18T11:03:38;0.20;99.90
43581;DHT22;29175;51.030;4.606;2022-12-18T11:06:08;0.40;99.90
43581;DHT22;29175;51.030;4.606;2022-12-18T11:08:34;0.40;99.90
43581;DHT22;29175;51.030;4.606;2022-12-18T11:11:00;0.20;99.90
43581;DHT22;29175;51.030;4.606;2022-12-18T11:13:28;0.20;99.90
43581;DHT22;29175;51.030;4.606;2022-12-18T11:15:54;0.40;99.90
43581;DHT22;29175;51.030;4.606;2022-12-18T11:18:32;0.40;99.90
43581;DHT22;29175;51.030;4.606;2022-12-18T11:21:11;0.50;99.90
43581;DHT22;29175;51.030;4.606;2022-12-18T11:23:51;0.60;99.90
43581;DHT22;29175;51.030;4.606;2022-12-18T11:26:18;0.70;99.90
43581;DHT22;29175;51.030;4.606;2022-12-18T11:28:45;0.70;99.90
43581;DHT22;29175;51.030;4.606;2022-12-18T11:34:05;0.80;99.90
43581;DHT22;29175;51.030;4.606;2022-12-18T11:36:45;0.80;99.90
43581;DHT22;29175;51.030;4.606;2022-12-18T11:41:55;1.00;99.90
43581;DHT22;29175;51.030;4.606;2022-12-18T11:50:00;1.20;99.90
43581;DHT22;29175;51.030;4.606;2022-12-18T11:52:46;1.20;99.90
43581;DHT22;29175;51.030;4.606;2022-12-18T11:56:08;1.20;99.90
43581;DHT22;29175;51.030;4.606;2022-12-18T11:58:53;1.30;99.90
43581;DHT22;29175;51.030;4.606;2022-12-18T12:12:02;1.40;99.90
43581;DHT22;29175;51.030;4.606;2022-12-18T12:17:18;1.50;99.90
43581;DHT22;29175;51.030;4.606;2022-12-18T12:22:38;1.70;99.90
43581;DHT22;29175;51.030;4.606;2022-12-18T12:30:23;1.80;99.90
43581;DHT22;29175;51.030;4.606;2022-12-18T12:33:40;1.90;99.90
43581;DHT22;29175;51.030;4.606;2022-12-18T12:39:05;2.00;99.90
43581;DHT22;29175;51.030;4.606;2022-12-18T12:41:33;1.90;99.90
43581;DHT22;29175;51.030;4.606;2022-12-18T12:44:24;1.90;99.90
43581;DHT22;29175;51.030;4.606;2022-12-18T12:46:52;1.80;99.90
43581;DHT22;29175;51.030;4.606;2022-12-18T12:49:21;1.70;99.90
43581;DHT22;29175;51.030;4.606;2022-12-18T12:52:30;1.90;99.90
43581;DHT22;29175;51.030;4.606;2022-12-18T12:54:59;1.90;99.90
43581;DHT22;29175;51.030;4.606;2022-12-18T12:57:54;2.00;99.90
43581;DHT22;29175;51.030;4.606;2022-12-18T13:00:24;2.10;99.90
43581;DHT22;29175;51.030;4.606;2022-12-18T13:03:03;2.20;99.90
43581;DHT22;29175;51.030;4.606;2022-12-18T13:05:50;2.30;99.90
43581;DHT22;29175;51.030;4.606;2022-12-18T13:08:29;2.30;99.90
43581;DHT22;29175;51.030;4.606;2022-12-18T13:10:57;2.20;99.90
43581;DHT22;29175;51.030;4.606;2022-12-18T13:13:53;2.20;99.90
43581;DHT22;29175;51.030;4.606;2022-12-18T13:16:24;2.30;99.90
43581;DHT22;29175;51.030;4.606;2022-12-18T13:18:54;2.20;99.90
43581;DHT22;29175;51.030;4.606;2022-12-18T13:21:30;2.30;99.90
43581;DHT22;29175;51.030;4.606;2022-12-18T13:24:20;2.20;99.90
43581;DHT22;29175;51.030;4.606;2022-12-18T13:26:48;2.30;99.90
43581;DHT22;29175;51.030;4.606;2022-12-18T13:29:43;2.20;99.90
43581;DHT22;29175;51.030;4.606;2022-12-18T13:32:23;2.20;99.90
43581;DHT22;29175;51.030;4.606;2022-12-18T13:35:00;2.40;99.90
43581;DHT22;29175;51.030;4.606;2022-12-18T13:37:51;2.30;99.90
43581;DHT22;29175;51.030;4.606;2022-12-18T13:48:23;2.20;99.90
43581;DHT22;29175;51.030;4.606;2022-12-18T13:50:57;2.10;99.90
43581;DHT22;29175;51.030;4.606;2022-12-18T13:53:29;2.00;99.90
43581;DHT22;29175;51.030;4.606;2022-12-18T13:55:56;1.90;99.90
43581;DHT22;29175;51.030;4.606;2022-12-18T13:58:22;2.10;99.90
43581;DHT22;29175;51.030;4.606;2022-12-18T14:00:48;2.10;99.90
43581;DHT22;29175;51.030;4.606;2022-12-18T14:03:23;2.20;99.90
43581;DHT22;29175;51.030;4.606;2022-12-18T14:05:56;2.00;99.90
43581;DHT22;29175;51.030;4.606;2022-12-18T14:08:25;1.90;99.90
43581;DHT22;29175;51.030;4.606;2022-12-18T14:10:52;2.00;99.90
43581;DHT22;29175;51.030;4.606;2022-12-18T14:13:28;1.90;99.90
43581;DHT22;29175;51.030;4.606;2022-12-18T14:15:55;2.20;99.90
43581;DHT22;29175;51.030;4.606;2022-12-18T14:18:46;2.10;99.90
43581;DHT22;29175;51.030;4.606;2022-12-18T14:21:27;2.30;99.90
43581;DHT22;29175;51.030;4.606;2022-12-18T14:24:16;2.20;99.90
43581;DHT22;29175;51.030;4.606;2022-12-18T14:26:42;2.30;99.90
43581;DHT22;29175;51.030;4.606;2022-12-18T14:29:28;2.20;99.90
43581;DHT22;29175;51.030;4.606;2022-12-18T14:32:05;2.10;99.90
43581;DHT22;29175;51.030;4.606;2022-12-18T14:34:31;2.10;99.90
43581;DHT22;29175;51.030;4.606;2022-12-18T14:36:57;2.20;99.90
43581;DHT22;29175;51.030;4.606;2022-12-18T14:39:22;2.10;99.90
43581;DHT22;29175;51.030;4.606;2022-12-18T14:41:51;2.10;99.90
43581;DHT22;29175;51.030;4.606;2022-12-18T14:44:17;2.00;99.90
43581;DHT22;29175;51.030;4.606;2022-12-18T14:46:47;1.80;99.90
43581;DHT22;29175;51.030;4.606;2022-12-18T14:51:54;1.90;99.90
43581;DHT22;29175;51.030;4.606;2022-12-18T14:54:22;1.90;99.90
43581;DHT22;29175;51.030;4.606;2022-12-18T14:56:58;1.90;99.90
43581;DHT22;29175;51.030;4.606;2022-12-18T14:59:26;2.00;99.90
43581;DHT22;29175;51.030;4.606;2022-12-18T15:04:41;2.00;99.90
43581;DHT22;29175;51.030;4.606;2022-12-18T15:07:21;1.90;99.90
43581;DHT22;29175;51.030;4.606;2022-12-18T15:10:13;1.80;99.90
43581;DHT22;29175;51.030;4.606;2022-12-18T15:18:04;1.70;99.90
43581;DHT22;29175;51.030;4.606;2022-12-18T15:20:33;1.80;99.90
43581;DHT22;29175;51.030;4.606;2022-12-18T15:23:05;1.90;99.90
43581;DHT22;29175;51.030;4.606;2022-12-18T15:25:37;2.00;99.90
43581;DHT22;29175;51.030;4.606;2022-12-18T15:30:40;1.80;99.90
43581;DHT22;29175;51.030;4.606;2022-12-18T15:33:25;1.80;99.90
43581;DHT22;29175;51.030;4.606;2022-12-18T15:36:03;1.80;99.90
43581;DHT22;29175;51.030;4.606;2022-12-18T15:38:29;2.00;99.90
43581;DHT22;29175;51.030;4.606;2022-12-18T15:40:57;1.90;99.90
43581;DHT22;29175;51.030;4.606;2022-12-18T15:43:24;1.80;99.90
43581;DHT22;29175;51.030;4.606;2022-12-18T15:46:04;1.80;99.90
43581;DHT22;29175;51.030;4.606;2022-12-18T15:48:33;1.80;99.90
43581;DHT22;29175;51.030;4.606;2022-12-18T15:50:59;1.90;99.90
43581;DHT22;29175;51.030;4.606;2022-12-18T15:53:29;1.80;99.90
43581;DHT22;29175;51.030;4.606;2022-12-18T15:55:55;1.80;99.90
43581;DHT22;29175;51.030;4.606;2022-12-18T15:58:39;1.90;99.90
43581;DHT22;29175;51.030;4.606;2022-12-18T16:01:05;1.80;99.90
43581;DHT22;29175;51.030;4.606;2022-12-18T16:03:33;1.70;99.90
43581;DHT22;29175;51.030;4.606;2022-12-18T16:05:59;1.90;99.90
43581;DHT22;29175;51.030;4.606;2022-12-18T16:08:30;1.90;99.90
43581;DHT22;29175;51.030;4.606;2022-12-18T16:10:56;1.90;99.90
43581;DHT22;29175;51.030;4.606;2022-12-18T16:13:23;2.00;99.90
43581;DHT22;29175;51.030;4.606;2022-12-18T16:15:49;1.90;99.90
43581;DHT22;29175;51.030;4.606;2022-12-18T16:18:15;2.00;99.90
43581;DHT22;29175;51.030;4.606;2022-12-18T16:20:41;2.00;99.90
43581;DHT22;29175;51.030;4.606;2022-12-18T16:23:07;2.00;99.90
43581;DHT22;29175;51.030;4.606;2022-12-18T16:25:33;2.00;99.90
43581;DHT22;29175;51.030;4.606;2022-12-18T16:27:58;1.90;99.90
43581;DHT22;29175;51.030;4.606;2022-12-18T16:30:27;1.90;99.90
43581;DHT22;29175;51.030;4.606;2022-12-18T16:32:56;2.10;99.90
43581;DHT22;29175;51.030;4.606;2022-12-18T16:35:23;1.90;99.90
43581;DHT22;29175;51.030;4.606;2022-12-18T16:37:49;2.00;99.90
43581;DHT22;29175;51.030;4.606;2022-12-18T16:40:16;2.10;99.90
43581;DHT22;29175;51.030;4.606;2022-12-18T16:42:44;2.00;99.90
43581;DHT22;29175;51.030;4.606;2022-12-18T16:45:16;2.00;99.90
43581;DHT22;29175;51.030;4.606;2022-12-18T16:47:42;2.00;99.90
43581;DHT22;29175;51.030;4.606;2022-12-18T16:50:08;2.00;99.90
43581;DHT22;29175;51.030;4.606;2022-12-18T16:52:34;2.00;99.90
43581;DHT22;29175;51.030;4.606;2022-12-18T16:55:00;2.00;99.90
43581;DHT22;29175;51.030;4.606;2022-12-18T16:57:26;2.20;99.90
43581;DHT22;29175;51.030;4.606;2022-12-18T16:59:55;2.10;99.90
43581;DHT22;29175;51.030;4.606;2022-12-18T17:02:23;2.10;99.90
43581;DHT22;29175;51.030;4.606;2022-12-18T17:04:52;2.10;99.90
43581;DHT22;29175;51.030;4.606;2022-12-18T17:07:19;2.10;99.90
43581;DHT22;29175;51.030;4.606;2022-12-18T17:09:44;2.00;99.90
43581;DHT22;29175;51.030;4.606;2022-12-18T17:12:10;2.00;99.90
43581;DHT22;29175;51.030;4.606;2022-12-18T17:14:36;2.00;99.90
43581;DHT22;29175;51.030;4.606;2022-12-18T17:17:02;2.10;99.90
43581;DHT22;29175;51.030;4.606;2022-12-18T17:19:28;2.20;99.90
43581;DHT22;29175;51.030;4.606;2022-12-18T17:21:55;2.30;99.90
43581;DHT22;29175;51.030;4.606;2022-12-18T17:24:20;2.30;99.90
43581;DHT22;29175;51.030;4.606;2022-12-18T17:26:47;2.20;99.90
43581;DHT22;29175;51.030;4.606;2022-12-18T17:29:15;2.20;99.90
43581;DHT22;29175;51.030;4.606;2022-12-18T17:31:41;2.20;99.90
43581;DHT22;29175;51.030;4.606;2022-12-18T17:34:08;2.20;99.90